Terminal Aerodrome Forecast
Issued by NWS

Home | Current Version | Previous Version | Text Only | Print | Product List | Glossary On
Versions: 1 2 3 4 5 6 7 8 9 10 11 12 13 14 15 16 17 18 19 20 21 22
000
FTUS41 KRLX 280900 AAA
TAFCKB
TAF AMD
KCKB 280900Z 2809/2906 18003KT 5SM SHRA BR OVC050
     FM281000 19002KT 4SM SHRA BR OVC015
     FM281500 24006KT 6SM SHRA BR OVC025
     FM282000 29006KT P6SM VCSH BKN025
     FM282300 32005KT P6SM BKN015=

USA.gov is the U.S. government's official web portal to all federal, state and local government web resources and services.